sensor_id;sensor_type;location;lat;lon;timestamp;pressure;altitude;pressure_sealevel;temperature;humidity
50702;BME280;36670;50.094;8.496;2023-02-16T00:01:41;101512.81;;;4.58;71.19
50702;BME280;36670;50.094;8.496;2023-02-16T00:04:28;101506.66;;;4.94;70.33
50702;BME280;36670;50.094;8.496;2023-02-16T00:06:54;101504.47;;;5.12;70.39
50702;BME280;36670;50.094;8.496;2023-02-16T00:09:21;101499.13;;;4.96;69.93
50702;BME280;36670;50.094;8.496;2023-02-16T00:11:47;101503.59;;;4.97;70.07
50702;BME280;36670;50.094;8.496;2023-02-16T00:14:34;101492.00;;;5.10;69.80
50702;BME280;36670;50.094;8.496;2023-02-16T00:16:59;101501.38;;;4.92;70.43
50702;BME280;36670;50.094;8.496;2023-02-16T00:19:31;101507.56;;;5.09;69.93
50702;BME280;36670;50.094;8.496;2023-02-16T00:21:58;101503.91;;;5.32;69.72
50702;BME280;36670;50.094;8.496;2023-02-16T00:24:25;101502.50;;;5.36;69.71
50702;BME280;36670;50.094;8.496;2023-02-16T00:26:51;101508.03;;;5.13;69.61
50702;BME280;36670;50.094;8.496;2023-02-16T00:31:52;101507.25;;;4.89;70.39
50702;BME280;36670;50.094;8.496;2023-02-16T00:34:33;101506.41;;;5.04;70.42
50702;BME280;36670;50.094;8.496;2023-02-16T00:37:01;101506.13;;;4.99;70.23
50702;BME280;36670;50.094;8.496;2023-02-16T00:39:27;101494.81;;;5.02;70.31
50702;BME280;36670;50.094;8.496;2023-02-16T00:42:04;101503.78;;;4.95;70.72
50702;BME280;36670;50.094;8.496;2023-02-16T00:44:36;101494.66;;;4.80;71.47
50702;BME280;36670;50.094;8.496;2023-02-16T00:47:18;101487.69;;;4.77;71.31
50702;BME280;36670;50.094;8.496;2023-02-16T00:49:44;101482.53;;;4.98;70.40
50702;BME280;36670;50.094;8.496;2023-02-16T00:52:34;101483.97;;;5.08;70.16
50702;BME280;36670;50.094;8.496;2023-02-16T00:55:04;101478.84;;;4.90;70.39
50702;BME280;36670;50.094;8.496;2023-02-16T00:57:33;101480.59;;;4.68;70.33
50702;BME280;36670;50.094;8.496;2023-02-16T01:00:03;101485.41;;;4.81;70.75
50702;BME280;36670;50.094;8.496;2023-02-16T01:02:30;101487.38;;;4.72;70.86
50702;BME280;36670;50.094;8.496;2023-02-16T01:04:56;101489.75;;;4.52;71.10
50702;BME280;36670;50.094;8.496;2023-02-16T01:07:21;101496.09;;;4.53;70.94
50702;BME280;36670;50.094;8.496;2023-02-16T01:10:05;101485.81;;;4.08;72.42
50702;BME280;36670;50.094;8.496;2023-02-16T01:12:49;101494.56;;;4.27;71.80
50702;BME280;36670;50.094;8.496;2023-02-16T01:15:18;101494.47;;;4.43;71.74
50702;BME280;36670;50.094;8.496;2023-02-16T01:17:45;101495.16;;;4.60;71.63
50702;BME280;36670;50.094;8.496;2023-02-16T01:20:19;101489.19;;;4.80;71.37
50702;BME280;36670;50.094;8.496;2023-02-16T01:22:45;101489.50;;;4.85;71.38
50702;BME280;36670;50.094;8.496;2023-02-16T01:25:10;101488.34;;;4.79;71.22
50702;BME280;36670;50.094;8.496;2023-02-16T01:27:37;101486.47;;;4.95;70.64
50702;BME280;36670;50.094;8.496;2023-02-16T01:30:12;101491.66;;;4.75;71.02
50702;BME280;36670;50.094;8.496;2023-02-16T01:32:38;101477.34;;;5.03;70.42
50702;BME280;36670;50.094;8.496;2023-02-16T01:35:03;101475.16;;;4.98;70.83
50702;BME280;36670;50.094;8.496;2023-02-16T01:37:29;101479.31;;;4.94;70.31
50702;BME280;36670;50.094;8.496;2023-02-16T01:39:54;101469.50;;;4.85;71.04
50702;BME280;36670;50.094;8.496;2023-02-16T01:42:32;101467.47;;;4.78;70.86
50702;BME280;36670;50.094;8.496;2023-02-16T01:45:03;101473.47;;;4.59;71.48
50702;BME280;36670;50.094;8.496;2023-02-16T01:47:36;101469.44;;;4.32;72.05
50702;BME280;36670;50.094;8.496;2023-02-16T01:50:14;101468.13;;;4.42;71.78
50702;BME280;36670;50.094;8.496;2023-02-16T01:52:42;101464.56;;;4.42;71.60
50702;BME280;36670;50.094;8.496;2023-02-16T01:55:23;101469.22;;;4.56;71.65
50702;BME280;36670;50.094;8.496;2023-02-16T01:57:58;101464.88;;;4.47;71.77
50702;BME280;36670;50.094;8.496;2023-02-16T02:03:23;101471.34;;;4.69;71.57
50702;BME280;36670;50.094;8.496;2023-02-16T02:06:13;101474.44;;;4.66;71.55
50702;BME280;36670;50.094;8.496;2023-02-16T02:08:48;101461.50;;;4.60;71.63
50702;BME280;36670;50.094;8.496;2023-02-16T02:11:22;101461.31;;;4.61;71.74
50702;BME280;36670;50.094;8.496;2023-02-16T02:13:53;101460.34;;;4.16;72.52
50702;BME280;36670;50.094;8.496;2023-02-16T02:16:24;101456.06;;;4.14;73.07
50702;BME280;36670;50.094;8.496;2023-02-16T02:18:51;101465.00;;;4.31;72.23
50702;BME280;36670;50.094;8.496;2023-02-16T02:21:28;101456.72;;;3.92;73.24
50702;BME280;36670;50.094;8.496;2023-02-16T02:27:23;101448.78;;;4.29;72.45
50702;BME280;36670;50.094;8.496;2023-02-16T02:29:53;101441.84;;;4.41;72.91
50702;BME280;36670;50.094;8.496;2023-02-16T02:37:55;101422.25;;;4.53;72.21
50702;BME280;36670;50.094;8.496;2023-02-16T02:40:38;101420.31;;;4.38;72.37
50702;BME280;36670;50.094;8.496;2023-02-16T02:43:22;101418.22;;;4.25;72.95
50702;BME280;36670;50.094;8.496;2023-02-16T02:46:20;101428.03;;;4.58;72.49
50702;BME280;36670;50.094;8.496;2023-02-16T02:48:48;101425.78;;;4.38;72.40
50702;BME280;36670;50.094;8.496;2023-02-16T02:51:14;101424.38;;;4.27;72.34
50702;BME280;36670;50.094;8.496;2023-02-16T02:54:19;101438.56;;;4.23;72.77
50702;BME280;36670;50.094;8.496;2023-02-16T02:57:28;101437.34;;;4.49;72.55
50702;BME280;36670;50.094;8.496;2023-02-16T03:05:34;101427.53;;;4.16;73.35
50702;BME280;36670;50.094;8.496;2023-02-16T03:08:06;101434.44;;;4.27;73.34
50702;BME280;36670;50.094;8.496;2023-02-16T03:10:41;101435.56;;;4.56;72.72
50702;BME280;36670;50.094;8.496;2023-02-16T03:13:35;101439.75;;;4.67;72.20
50702;BME280;36670;50.094;8.496;2023-02-16T03:16:05;101431.13;;;4.55;72.30
50702;BME280;36670;50.094;8.496;2023-02-16T03:18:33;101432.78;;;4.41;72.56
50702;BME280;36670;50.094;8.496;2023-02-16T03:21:18;101439.50;;;4.53;72.15
50702;BME280;36670;50.094;8.496;2023-02-16T03:24:05;101442.75;;;4.57;71.80
50702;BME280;36670;50.094;8.496;2023-02-16T03:26:51;101443.63;;;4.72;71.79
50702;BME280;36670;50.094;8.496;2023-02-16T03:29:37;101444.97;;;4.53;72.36
50702;BME280;36670;50.094;8.496;2023-02-16T03:32:03;101439.91;;;4.27;72.24
50702;BME280;36670;50.094;8.496;2023-02-16T03:34:29;101444.78;;;4.55;72.52
50702;BME280;36670;50.094;8.496;2023-02-16T03:36:57;101438.84;;;4.51;71.81
50702;BME280;36670;50.094;8.496;2023-02-16T03:39:26;101437.19;;;4.65;71.44
50702;BME280;36670;50.094;8.496;2023-02-16T03:41:53;101432.63;;;4.57;72.38
50702;BME280;36670;50.094;8.496;2023-02-16T03:44:19;101430.78;;;4.58;71.89
50702;BME280;36670;50.094;8.496;2023-02-16T03:46:45;101428.09;;;4.50;72.17
50702;BME280;36670;50.094;8.496;2023-02-16T03:49:13;101432.25;;;4.46;72.58
50702;BME280;36670;50.094;8.496;2023-02-16T03:51:39;101431.38;;;4.45;72.03
50702;BME280;36670;50.094;8.496;2023-02-16T03:54:04;101434.03;;;4.53;72.14
50702;BME280;36670;50.094;8.496;2023-02-16T03:56:29;101440.06;;;4.49;71.82
50702;BME280;36670;50.094;8.496;2023-02-16T03:58:55;101436.63;;;4.32;72.15
50702;BME280;36670;50.094;8.496;2023-02-16T04:01:20;101438.38;;;4.24;72.41
50702;BME280;36670;50.094;8.496;2023-02-16T04:03:45;101446.28;;;4.19;72.53
50702;BME280;36670;50.094;8.496;2023-02-16T04:06:11;101441.78;;;4.26;72.65
50702;BME280;36670;50.094;8.496;2023-02-16T04:08:36;101440.22;;;4.32;72.37
50702;BME280;36670;50.094;8.496;2023-02-16T04:11:02;101437.16;;;4.27;72.36
50702;BME280;36670;50.094;8.496;2023-02-16T04:13:47;101443.50;;;4.04;72.36
50702;BME280;36670;50.094;8.496;2023-02-16T04:16:12;101442.69;;;4.19;71.97
50702;BME280;36670;50.094;8.496;2023-02-16T04:18:37;101433.16;;;4.15;72.36
50702;BME280;36670;50.094;8.496;2023-02-16T04:21:03;101438.16;;;4.11;72.42
50702;BME280;36670;50.094;8.496;2023-02-16T04:23:28;101443.63;;;4.11;72.69
50702;BME280;36670;50.094;8.496;2023-02-16T04:25:54;101429.41;;;4.16;72.72
50702;BME280;36670;50.094;8.496;2023-02-16T04:28:19;101431.03;;;4.25;72.45
50702;BME280;36670;50.094;8.496;2023-02-16T04:30:44;101436.63;;;4.08;72.42
50702;BME280;36670;50.094;8.496;2023-02-16T04:33:09;101433.34;;;4.13;72.34
50702;BME280;36670;50.094;8.496;2023-02-16T04:35:35;101427.94;;;4.05;72.82
50702;BME280;36670;50.094;8.496;2023-02-16T04:38:00;101431.47;;;3.90;72.46
50702;BME280;36670;50.094;8.496;2023-02-16T04:40:25;101437.75;;;3.91;73.40
50702;BME280;36670;50.094;8.496;2023-02-16T04:42:50;101435.22;;;4.13;72.64
50702;BME280;36670;50.094;8.496;2023-02-16T04:45:16;101435.53;;;4.18;72.85
50702;BME280;36670;50.094;8.496;2023-02-16T04:47:41;101436.50;;;4.25;72.26
50702;BME280;36670;50.094;8.496;2023-02-16T04:50:07;101437.19;;;4.04;72.62
50702;BME280;36670;50.094;8.496;2023-02-16T04:52:33;101437.00;;;4.05;72.92
50702;BME280;36670;50.094;8.496;2023-02-16T04:54:58;101436.81;;;4.07;72.29
50702;BME280;36670;50.094;8.496;2023-02-16T04:57:24;101435.16;;;3.74;73.15
50702;BME280;36670;50.094;8.496;2023-02-16T04:59:49;101431.56;;;3.42;74.30
50702;BME280;36670;50.094;8.496;2023-02-16T05:02:14;101430.78;;;3.57;74.15
50702;BME280;36670;50.094;8.496;2023-02-16T05:04:40;101429.91;;;3.65;73.63
50702;BME280;36670;50.094;8.496;2023-02-16T05:07:06;101436.50;;;4.02;73.17
50702;BME280;36670;50.094;8.496;2023-02-16T05:09:31;101433.41;;;4.05;73.68
50702;BME280;36670;50.094;8.496;2023-02-16T05:11:57;101428.22;;;3.87;73.64
50702;BME280;36670;50.094;8.496;2023-02-16T05:14:41;101430.56;;;3.67;74.58
50702;BME280;36670;50.094;8.496;2023-02-16T05:19:32;101432.97;;;3.93;73.96
50702;BME280;36670;50.094;8.496;2023-02-16T05:21:57;101437.72;;;3.99;73.82
50702;BME280;36670;50.094;8.496;2023-02-16T05:24:26;101441.97;;;3.79;73.64
50702;BME280;36670;50.094;8.496;2023-02-16T05:26:51;101443.28;;;3.83;73.82
50702;BME280;36670;50.094;8.496;2023-02-16T05:29:17;101440.50;;;4.14;73.47
50702;BME280;36670;50.094;8.496;2023-02-16T05:31:42;101442.09;;;4.08;73.17
50702;BME280;36670;50.094;8.496;2023-02-16T05:34:07;101447.19;;;3.88;73.12
50702;BME280;36670;50.094;8.496;2023-02-16T05:36:32;101442.75;;;3.87;73.13
50702;BME280;36670;50.094;8.496;2023-02-16T05:38:58;101450.66;;;3.74;73.92
50702;BME280;36670;50.094;8.496;2023-02-16T05:41:23;101447.50;;;3.62;74.00
50702;BME280;36670;50.094;8.496;2023-02-16T05:43:52;101454.19;;;3.83;74.07
50702;BME280;36670;50.094;8.496;2023-02-16T05:46:19;101459.38;;;3.78;74.08
50702;BME280;36670;50.094;8.496;2023-02-16T05:48:45;101444.59;;;3.64;74.11
50702;BME280;36670;50.094;8.496;2023-02-16T05:51:10;101452.47;;;3.90;74.06
50702;BME280;36670;50.094;8.496;2023-02-16T05:53:35;101457.94;;;3.90;73.66
50702;BME280;36670;50.094;8.496;2023-02-16T05:56:01;101445.97;;;3.91;73.12
50702;BME280;36670;50.094;8.496;2023-02-16T05:58:26;101447.66;;;3.69;73.46
50702;BME280;36670;50.094;8.496;2023-02-16T06:00:52;101453.59;;;4.04;74.06
50702;BME280;36670;50.094;8.496;2023-02-16T06:03:17;101452.66;;;4.35;72.48
50702;BME280;36670;50.094;8.496;2023-02-16T06:05:42;101463.66;;;4.26;72.54
50702;BME280;36670;50.094;8.496;2023-02-16T06:08:08;101461.16;;;4.17;72.81
50702;BME280;36670;50.094;8.496;2023-02-16T06:10:33;101467.59;;;4.01;72.82
50702;BME280;36670;50.094;8.496;2023-02-16T06:12:58;101463.75;;;3.87;73.09
50702;BME280;36670;50.094;8.496;2023-02-16T06:15:24;101473.88;;;4.09;73.14
50702;BME280;36670;50.094;8.496;2023-02-16T06:17:49;101467.28;;;4.19;72.65
50702;BME280;36670;50.094;8.496;2023-02-16T06:20:14;101474.09;;;4.23;72.50
50702;BME280;36670;50.094;8.496;2023-02-16T06:22:40;101467.28;;;4.19;72.96
50702;BME280;36670;50.094;8.496;2023-02-16T06:25:05;101476.78;;;4.08;72.30
50702;BME280;36670;50.094;8.496;2023-02-16T06:27:30;101480.44;;;3.92;72.56
50702;BME280;36670;50.094;8.496;2023-02-16T06:29:56;101484.03;;;3.61;73.24
50702;BME280;36670;50.094;8.496;2023-02-16T06:32:21;101487.13;;;3.58;73.46
50702;BME280;36670;50.094;8.496;2023-02-16T06:34:46;101493.56;;;3.65;73.84
50702;BME280;36670;50.094;8.496;2023-02-16T06:37:12;101489.50;;;3.61;73.22
50702;BME280;36670;50.094;8.496;2023-02-16T06:39:37;101485.94;;;3.61;73.05
50702;BME280;36670;50.094;8.496;2023-02-16T06:42:02;101492.09;;;3.46;73.38
50702;BME280;36670;50.094;8.496;2023-02-16T06:44:27;101491.38;;;3.61;73.14
50702;BME280;36670;50.094;8.496;2023-02-16T06:46:53;101499.56;;;3.61;73.29
50702;BME280;36670;50.094;8.496;2023-02-16T06:49:19;101493.88;;;3.79;73.32
50702;BME280;36670;50.094;8.496;2023-02-16T06:51:46;101502.38;;;3.75;73.36
50702;BME280;36670;50.094;8.496;2023-02-16T06:54:13;101500.75;;;3.66;72.61
50702;BME280;36670;50.094;8.496;2023-02-16T06:56:39;101499.13;;;3.40;73.76
50702;BME280;36670;50.094;8.496;2023-02-16T06:59:05;101502.38;;;3.36;73.61
50702;BME280;36670;50.094;8.496;2023-02-16T07:01:30;101490.56;;;3.44;74.10
50702;BME280;36670;50.094;8.496;2023-02-16T07:03:56;101497.56;;;3.46;73.68
50702;BME280;36670;50.094;8.496;2023-02-16T07:06:24;101492.94;;;3.55;73.87
50702;BME280;36670;50.094;8.496;2023-02-16T07:08:51;101491.25;;;3.54;73.12
50702;BME280;36670;50.094;8.496;2023-02-16T07:11:16;101490.00;;;3.65;73.13
50702;BME280;36670;50.094;8.496;2023-02-16T07:13:42;101496.84;;;3.61;73.44
50702;BME280;36670;50.094;8.496;2023-02-16T07:16:08;101490.84;;;3.97;72.77
50702;BME280;36670;50.094;8.496;2023-02-16T07:18:34;101490.13;;;3.71;72.73
50702;BME280;36670;50.094;8.496;2023-02-16T07:20:59;101492.94;;;3.86;72.58
50702;BME280;36670;50.094;8.496;2023-02-16T07:23:24;101491.28;;;4.08;72.94
50702;BME280;36670;50.094;8.496;2023-02-16T07:25:50;101487.72;;;4.08;72.63
50702;BME280;36670;50.094;8.496;2023-02-16T07:28:15;101493.47;;;3.90;73.08
50702;BME280;36670;50.094;8.496;2023-02-16T07:30:40;101492.81;;;4.11;72.29
50702;BME280;36670;50.094;8.496;2023-02-16T07:33:06;101501.16;;;4.18;72.22
50702;BME280;36670;50.094;8.496;2023-02-16T07:35:32;101505.47;;;4.12;72.62
50702;BME280;36670;50.094;8.496;2023-02-16T07:37:58;101502.38;;;3.75;72.89
50702;BME280;36670;50.094;8.496;2023-02-16T07:40:23;101511.72;;;3.50;73.24
50702;BME280;36670;50.094;8.496;2023-02-16T07:42:49;101510.03;;;3.40;73.08
50702;BME280;36670;50.094;8.496;2023-02-16T07:45:14;101508.94;;;3.66;73.83
50702;BME280;36670;50.094;8.496;2023-02-16T07:47:39;101509.78;;;3.67;72.87
50702;BME280;36670;50.094;8.496;2023-02-16T07:50:05;101505.09;;;3.84;73.34
50702;BME280;36670;50.094;8.496;2023-02-16T07:52:31;101509.66;;;3.91;73.17
50702;BME280;36670;50.094;8.496;2023-02-16T07:54:57;101508.94;;;3.98;72.98
50702;BME280;36670;50.094;8.496;2023-02-16T07:57:26;101509.31;;;3.95;72.91
50702;BME280;36670;50.094;8.496;2023-02-16T07:59:52;101515.28;;;3.98;72.76
50702;BME280;36670;50.094;8.496;2023-02-16T08:02:19;101515.56;;;3.72;72.92
50702;BME280;36670;50.094;8.496;2023-02-16T08:04:45;101522.69;;;3.41;72.77
50702;BME280;36670;50.094;8.496;2023-02-16T08:07:15;101520.91;;;3.57;73.23
50702;BME280;36670;50.094;8.496;2023-02-16T08:09:40;101522.69;;;3.41;72.89
50702;BME280;36670;50.094;8.496;2023-02-16T08:12:10;101528.16;;;3.33;74.04
50702;BME280;36670;50.094;8.496;2023-02-16T08:14:37;101531.06;;;3.32;73.68
50702;BME280;36670;50.094;8.496;2023-02-16T08:17:03;101525.75;;;3.38;73.86
50702;BME280;36670;50.094;8.496;2023-02-16T08:19:28;101528.13;;;3.41;73.87
50702;BME280;36670;50.094;8.496;2023-02-16T08:21:54;101516.69;;;3.38;73.80
50702;BME280;36670;50.094;8.496;2023-02-16T08:24:20;101514.88;;;3.70;72.91
50702;BME280;36670;50.094;8.496;2023-02-16T08:26:45;101517.69;;;3.45;73.62
50702;BME280;36670;50.094;8.496;2023-02-16T08:29:14;101521.44;;;3.52;73.62
50702;BME280;36670;50.094;8.496;2023-02-16T08:31:42;101519.66;;;3.20;73.42
50702;BME280;36670;50.094;8.496;2023-02-16T08:34:08;101523.47;;;2.86;74.70
50702;BME280;36670;50.094;8.496;2023-02-16T08:36:36;101531.81;;;2.84;74.68
50702;BME280;36670;50.094;8.496;2023-02-16T08:39:14;101529.16;;;3.40;73.46
50702;BME280;36670;50.094;8.496;2023-02-16T08:41:41;101519.13;;;3.72;72.88
50702;BME280;36670;50.094;8.496;2023-02-16T08:44:08;101513.06;;;3.62;73.03
50702;BME280;36670;50.094;8.496;2023-02-16T08:46:34;101523.72;;;3.32;73.55
50702;BME280;36670;50.094;8.496;2023-02-16T08:49:00;101523.56;;;3.25;74.03
50702;BME280;36670;50.094;8.496;2023-02-16T08:51:27;101533.78;;;3.32;74.10
50702;BME280;36670;50.094;8.496;2023-02-16T08:53:53;101527.38;;;3.64;73.07
50702;BME280;36670;50.094;8.496;2023-02-16T08:56:20;101529.72;;;3.67;72.62
50702;BME280;36670;50.094;8.496;2023-02-16T08:58:45;101528.09;;;3.50;72.92
50702;BME280;36670;50.094;8.496;2023-02-16T09:01:12;101525.66;;;3.63;72.70
50702;BME280;36670;50.094;8.496;2023-02-16T09:03:39;101521.22;;;3.70;72.80
50702;BME280;36670;50.094;8.496;2023-02-16T09:06:10;101528.03;;;4.06;72.38
50702;BME280;36670;50.094;8.496;2023-02-16T09:08:37;101540.06;;;4.20;71.86
50702;BME280;36670;50.094;8.496;2023-02-16T09:11:03;101541.22;;;4.25;71.37
50702;BME280;36670;50.094;8.496;2023-02-16T09:13:29;101541.66;;;4.14;71.92
50702;BME280;36670;50.094;8.496;2023-02-16T09:16:09;101546.56;;;3.87;71.88
50702;BME280;36670;50.094;8.496;2023-02-16T09:18:36;101548.72;;;3.69;72.72
50702;BME280;36670;50.094;8.496;2023-02-16T09:21:06;101543.91;;;3.71;72.52
50702;BME280;36670;50.094;8.496;2023-02-16T09:23:36;101546.06;;;3.84;71.80
50702;BME280;36670;50.094;8.496;2023-02-16T09:26:02;101538.00;;;3.51;72.90
50702;BME280;36670;50.094;8.496;2023-02-16T09:28:31;101535.41;;;3.57;73.43
50702;BME280;36670;50.094;8.496;2023-02-16T09:30:57;101532.44;;;3.75;72.64
50702;BME280;36670;50.094;8.496;2023-02-16T09:33:23;101541.72;;;3.66;71.93
50702;BME280;36670;50.094;8.496;2023-02-16T09:35:48;101538.00;;;3.51;72.76
50702;BME280;36670;50.094;8.496;2023-02-16T09:38:13;101539.19;;;3.56;72.79
50702;BME280;36670;50.094;8.496;2023-02-16T09:40:41;101541.09;;;3.39;72.71
50702;BME280;36670;50.094;8.496;2023-02-16T09:45:46;101556.63;;;3.39;73.03
50702;BME280;36670;50.094;8.496;2023-02-16T09:48:36;101550.22;;;3.71;72.47
50702;BME280;36670;50.094;8.496;2023-02-16T09:51:03;101539.75;;;3.83;71.87
50702;BME280;36670;50.094;8.496;2023-02-16T09:53:38;101533.94;;;4.18;71.12
50702;BME280;36670;50.094;8.496;2023-02-16T09:56:19;101529.69;;;4.15;71.39
50702;BME280;36670;50.094;8.496;2023-02-16T09:59:12;101540.75;;;4.22;71.10
50702;BME280;36670;50.094;8.496;2023-02-16T10:01:51;101546.81;;;3.69;72.17
50702;BME280;36670;50.094;8.496;2023-02-16T10:04:35;101555.59;;;3.88;72.19
50702;BME280;36670;50.094;8.496;2023-02-16T10:09:54;101537.47;;;3.95;70.38
50702;BME280;36670;50.094;8.496;2023-02-16T10:12:25;101537.88;;;3.84;71.20
50702;BME280;36670;50.094;8.496;2023-02-16T10:14:56;101551.06;;;3.72;71.64
50702;BME280;36670;50.094;8.496;2023-02-16T10:17:33;101547.63;;;3.78;71.19
50702;BME280;36670;50.094;8.496;2023-02-16T10:22:54;101546.53;;;3.96;71.86
50702;BME280;36670;50.094;8.496;2023-02-16T10:25:39;101530.06;;;4.12;71.44
50702;BME280;36670;50.094;8.496;2023-02-16T10:28:16;101536.91;;;4.08;70.49
50702;BME280;36670;50.094;8.496;2023-02-16T10:30:47;101536.91;;;4.31;70.64
50702;BME280;36670;50.094;8.496;2023-02-16T10:35:45;101541.00;;;4.35;70.62
50702;BME280;36670;50.094;8.496;2023-02-16T10:40:54;101537.31;;;4.51;70.26
50702;BME280;36670;50.094;8.496;2023-02-16T10:43:37;101526.97;;;4.61;70.29
50702;BME280;36670;50.094;8.496;2023-02-16T10:46:04;101524.59;;;4.82;69.71
50702;BME280;36670;50.094;8.496;2023-02-16T10:48:30;101519.53;;;4.70;69.34
50702;BME280;36670;50.094;8.496;2023-02-16T10:51:11;101523.59;;;4.59;69.13
50702;BME280;36670;50.094;8.496;2023-02-16T10:53:48;101525.81;;;4.33;69.78
50702;BME280;36670;50.094;8.496;2023-02-16T10:56:44;101521.28;;;4.48;69.79
50702;BME280;36670;50.094;8.496;2023-02-16T10:59:17;101487.19;;;4.36;69.76
50702;BME280;36670;50.094;8.496;2023-02-16T11:01:45;101506.59;;;4.41;69.79
50702;BME280;36670;50.094;8.496;2023-02-16T11:07:09;101506.78;;;5.01;68.34
50702;BME280;36670;50.094;8.496;2023-02-16T11:09:36;101499.25;;;5.18;68.77
50702;BME280;36670;50.094;8.496;2023-02-16T11:14:49;101492.66;;;5.57;67.97
50702;BME280;36670;50.094;8.496;2023-02-16T11:17:17;101495.13;;;5.67;67.56
50702;BME280;36670;50.094;8.496;2023-02-16T11:19:52;101482.03;;;5.84;67.42
50702;BME280;36670;50.094;8.496;2023-02-16T11:22:30;101479.78;;;5.72;66.86
50702;BME280;36670;50.094;8.496;2023-02-16T11:25:16;101487.00;;;5.95;66.73
50702;BME280;36670;50.094;8.496;2023-02-16T11:27:57;101470.03;;;5.85;66.84
50702;BME280;36670;50.094;8.496;2023-02-16T11:30:35;101458.50;;;5.74;67.23
50702;BME280;36670;50.094;8.496;2023-02-16T11:33:05;101464.88;;;5.30;67.15
50702;BME280;36670;50.094;8.496;2023-02-16T11:35:43;101469.78;;;5.64;67.34
50702;BME280;36670;50.094;8.496;2023-02-16T11:38:33;101456.94;;;5.65;67.22
50702;BME280;36670;50.094;8.496;2023-02-16T11:41:05;101467.34;;;5.40;67.55
50702;BME280;36670;50.094;8.496;2023-02-16T11:43:34;101455.56;;;5.76;67.51
50702;BME280;36670;50.094;8.496;2023-02-16T11:46:12;101461.66;;;5.56;68.68
50702;BME280;36670;50.094;8.496;2023-02-16T11:48:38;101462.41;;;6.17;66.16
50702;BME280;36670;50.094;8.496;2023-02-16T11:51:07;101466.03;;;6.02;66.78
50702;BME280;36670;50.094;8.496;2023-02-16T11:53:35;101466.84;;;6.39;66.00
50702;BME280;36670;50.094;8.496;2023-02-16T11:56:28;101456.38;;;6.49;65.72
50702;BME280;36670;50.094;8.496;2023-02-16T11:59:18;101446.00;;;6.45;65.92
50702;BME280;36670;50.094;8.496;2023-02-16T12:05:08;101455.66;;;6.62;65.41
50702;BME280;36670;50.094;8.496;2023-02-16T12:08:18;101448.41;;;6.33;65.15
50702;BME280;36670;50.094;8.496;2023-02-16T12:11:04;101444.31;;;5.86;65.93
50702;BME280;36670;50.094;8.496;2023-02-16T12:14:03;101432.94;;;6.04;65.88
50702;BME280;36670;50.094;8.496;2023-02-16T12:16:40;101437.19;;;5.91;66.14
50702;BME280;36670;50.094;8.496;2023-02-16T12:19:26;101429.78;;;5.85;66.48
50702;BME280;36670;50.094;8.496;2023-02-16T12:22:08;101426.34;;;5.83;66.50
50702;BME280;36670;50.094;8.496;2023-02-16T12:25:01;101427.50;;;5.89;66.52
50702;BME280;36670;50.094;8.496;2023-02-16T12:27:36;101416.44;;;6.40;66.38
50702;BME280;36670;50.094;8.496;2023-02-16T12:30:30;101422.09;;;6.39;66.00
50702;BME280;36670;50.094;8.496;2023-02-16T12:35:54;101428.66;;;6.66;65.60
50702;BME280;36670;50.094;8.496;2023-02-16T12:38:36;101420.09;;;6.76;65.31
50702;BME280;36670;50.094;8.496;2023-02-16T12:41:22;101419.88;;;6.77;65.60
50702;BME280;36670;50.094;8.496;2023-02-16T12:44:05;101419.09;;;6.83;65.34
50702;BME280;36670;50.094;8.496;2023-02-16T12:46:44;101411.56;;;6.64;65.22
50702;BME280;36670;50.094;8.496;2023-02-16T12:51:49;101398.66;;;6.93;65.15
50702;BME280;36670;50.094;8.496;2023-02-16T12:54:28;101392.13;;;6.94;64.72
50702;BME280;36670;50.094;8.496;2023-02-16T12:57:00;101388.41;;;7.08;64.45
50702;BME280;36670;50.094;8.496;2023-02-16T12:59:37;101389.06;;;7.10;65.28
50702;BME280;36670;50.094;8.496;2023-02-16T13:02:16;101377.31;;;7.30;64.68
50702;BME280;36670;50.094;8.496;2023-02-16T13:04:57;101383.13;;;7.55;65.04
50702;BME280;36670;50.094;8.496;2023-02-16T13:07:30;101380.13;;;7.50;64.10
50702;BME280;36670;50.094;8.496;2023-02-16T13:10:01;101375.53;;;7.64;63.89
50702;BME280;36670;50.094;8.496;2023-02-16T13:12:33;101369.38;;;7.55;64.63
50702;BME280;36670;50.094;8.496;2023-02-16T13:15:08;101365.78;;;7.55;64.43
50702;BME280;36670;50.094;8.496;2023-02-16T13:17:39;101359.47;;;7.61;64.57
50702;BME280;36670;50.094;8.496;2023-02-16T13:20:17;101355.25;;;7.65;63.99
50702;BME280;36670;50.094;8.496;2023-02-16T13:31:39;101327.75;;;7.65;64.07
50702;BME280;36670;50.094;8.496;2023-02-16T13:36:49;101320.97;;;7.54;64.85
50702;BME280;36670;50.094;8.496;2023-02-16T13:44:40;101320.78;;;7.62;64.37
50702;BME280;36670;50.094;8.496;2023-02-16T13:47:15;101312.94;;;7.59;64.75
50702;BME280;36670;50.094;8.496;2023-02-16T13:49:42;101305.34;;;7.75;64.43
50702;BME280;36670;50.094;8.496;2023-02-16T13:52:09;101308.13;;;7.81;64.36
50702;BME280;36670;50.094;8.496;2023-02-16T13:54:40;101298.00;;;7.95;64.90
50702;BME280;36670;50.094;8.496;2023-02-16T13:57:12;101295.84;;;7.97;64.20
50702;BME280;36670;50.094;8.496;2023-02-16T14:02:10;101293.09;;;7.97;65.42
50702;BME280;36670;50.094;8.496;2023-02-16T14:12:04;101288.88;;;8.01;64.43
50702;BME280;36670;50.094;8.496;2023-02-16T14:20:36;101276.19;;;8.07;63.87
50702;BME280;36670;50.094;8.496;2023-02-16T14:22:51;101286.34;;;7.86;64.94
50702;BME280;36670;50.094;8.496;2023-02-16T14:28:02;101291.66;;;7.95;64.46
50702;BME280;36670;50.094;8.496;2023-02-16T14:33:18;101280.00;;;8.26;64.30
50702;BME280;36670;50.094;8.496;2023-02-16T14:41:14;101274.50;;;8.46;64.01
50702;BME280;36670;50.094;8.496;2023-02-16T14:43:49;101271.09;;;8.51;64.04
50702;BME280;36670;50.094;8.496;2023-02-16T14:51:47;101272.38;;;8.28;64.40
50702;BME280;36670;50.094;8.496;2023-02-16T14:57:41;101268.16;;;8.19;65.23
50702;BME280;36670;50.094;8.496;2023-02-16T15:02:54;101271.69;;;8.73;64.10
50702;BME280;36670;50.094;8.496;2023-02-16T15:05:27;101267.91;;;8.47;64.24